Terminal Aerodrome Forecast
Issued by NWS

Home | Current Version | Previous Version | Text Only | Print | Product List | Glossary On
Versions: 1 2 3 4 5 6 7 8 9 10 11 12 13
000
FTAK31 PAJN 211813 AAA
TAFAWG
TAF AMD
PAWG 211813Z 2118/2218 11015G25KT 6SM -RA BKN015 OVC030
      WS020/09030KT
     FM212200 11010G20KT P6SM -SHRA BKN025 OVC050
     FM220300 11010KT P6SM -SHRA BKN035 OVC070
      AMD LTD TO CLD VIS AND WIND 2206/2215=

USA.gov is the U.S. government's official web portal to all federal, state and local government web resources and services.